Terminal Aerodrome Forecast
Issued by NWS

Home | Current Version | Previous Version | Text Only | Print | Product List | Glossary On
Versions: 1 2 3 4 5 6 7 8 9 10 11 12 13 14
000
FTUS46 KMTR 290542
TAFOAK
TAF
KOAK 290542Z 2906/3012 26007KT P6SM FEW012
     FM290900 23006KT P6SM BKN015
     FM291700 25008KT P6SM SCT018
     FM292000 27018KT P6SM SKC
     FM300500 25010KT P6SM SCT020=

USA.gov is the U.S. government's official web portal to all federal, state and local government web resources and services.